嘉手納 の空港の天気 - METARとTAF

嘉手納基地 ( RODN / DNA ) - 沖縄県沖縄市
飛行場実況気象(Metar)
観測時間12/11 16:51 JST (12/11 07:51 UTC)
風向・風速南南東 4m/s
視程10km以上
天気現象弱い霧雨
少しの雲 雲底高度 240m
全天の8割程度の雲 雲底高度 1220m
気温24℃
湿度89%
気圧1014.8hPa
METARRODN 110751Z AUTO 16007KT 10SM -DZ FEW008 BKN040 24/22 A2995 RMK AO2 DZE0656DZB15E37DZB41 SLP148 $
過去の天気等 Google飛行場航空写真 Wunderground天気予報

過去48時間のMETAR

飛行場予報(TAF)
発表時間: 12/11 15:30 JST (12/11 06:30 UTC)
予報対象時間: 11日15時 JST ~ 12日15時 JST
風向・風速南東 5m/s 瞬間風速 8m/s
視程8000m
天気現象弱い雨
全天の4割程度の雲 雲底高度 300m
全天の8割程度の雲 雲底高度 460m
11日19時 JST ~ 11日20時 JST に徐々に
風向・風速北東 5m/s
視程6000m
天気現象弱い雨
全天の8割程度の雲 雲底高度 460m
11日20時 JST ~ 11日21時 JST に徐々に
風向・風速北 8m/s
視程8000m
天気現象弱い雨
全天の8割程度の雲 雲底高度 610m
TAF AMD RODN 110630Z 1106/1206 14010G15KT 8000 -RA SCT010 BKN015 QNH2990INS
BECMG 1110/1111 04009KT 6000 -RA BKN015 QNH2999INS
BECMG 1111/1112 35015KT 8000 -RA BKN020 QNH3002INS TX23/1106Z TN18/1121Z
日本の空港のMETAR・TAFへのリンク

RJTT 東京国際空港
RJAA 新東京国際空港
RJBB 関西国際空港
RJOO 大阪空港
RJGG 中部国際空港
RJCC 新千歳空港
RJFF 福岡空港
ROAH 那覇空港


RJEC 旭川空港
RJCH 函館空港
RJCK 釧路空港
RJCM 女満別空港
RJCB 帯広空港
RJSA 青森空港
RJSS 仙台空港
RJSK 秋田空港
RJSF 福島空港
RJAH 茨城空港
RJSN 新潟空港
RJNT 富山空港
RJNK 小松飛行場
RJNS 静岡空港
RJOH 美保飛行場
RJOC 出雲空港
RJOB 岡山空港
RJOA 広島空港
RJOI 岩国飛行場
RJOT 高松空港
RJOM 松山空港
RJOK 高知空港
RJFR 北九州空港
RJFT 熊本空港
RJFU 長崎空港
RJFS 佐賀空港
RJFO 大分空港
RJFM 宮崎空港
RJFK 鹿児島空港
ROIG 石垣島空港
RJTY 横田飛行場
ROTM 普天間飛行場
RODN 嘉手納飛行場